Terminal Aerodrome Forecast
Issued by NWS

Home | Current Version | Previous Version | Text Only | Print | Product List | Glossary On
Versions: 1 2 3 4 5 6 7 8 9 10 11 12 13 14 15 16 17 18 19 20 21 22 23 24 25 26 27 28
000
FTUS46 KMTR 250910 AAA
TAFSFO
TAF AMD
KSFO 250910Z 2509/2612 29007KT P6SM BKN008
     FM251800 31009KT P6SM FEW010
     FM252100 30014KT P6SM FEW012
     FM260300 28011KT P6SM FEW008 BKN010=

USA.gov is the U.S. government's official web portal to all federal, state and local government web resources and services.